sensor_id;sensor_type;location;lat;lon;timestamp;P1;P2;P0
47982;PMS5003;33751;50.816;-1.214;2022-07-21T00:02:24;7;7;
47982;PMS5003;33751;50.816;-1.214;2022-07-21T00:04:50;7;6;
47982;PMS5003;33751;50.816;-1.214;2022-07-21T00:07:17;7;7;
47982;PMS5003;33751;50.816;-1.214;2022-07-21T00:09:43;17;7;
47982;PMS5003;33751;50.816;-1.214;2022-07-21T00:12:10;7;7;
47982;PMS5003;33751;50.816;-1.214;2022-07-21T00:14:37;7;7;
47982;PMS5003;33751;50.816;-1.214;2022-07-21T00:17:04;8;7;
47982;PMS5003;33751;50.816;-1.214;2022-07-21T00:19:31;5;5;
47982;PMS5003;33751;50.816;-1.214;2022-07-21T00:21:58;5;5;
47982;PMS5003;33751;50.816;-1.214;2022-07-21T00:24:24;7;5;
47982;PMS5003;33751;50.816;-1.214;2022-07-21T00:26:51;7;5;
47982;PMS5003;33751;50.816;-1.214;2022-07-21T00:29:17;6;5;
47982;PMS5003;33751;50.816;-1.214;2022-07-21T00:31:44;7;6;
47982;PMS5003;33751;50.816;-1.214;2022-07-21T00:34:11;16;6;
47982;PMS5003;33751;50.816;-1.214;2022-07-21T00:36:39;5;5;
47982;PMS5003;33751;50.816;-1.214;2022-07-21T00:39:06;7;4;
47982;PMS5003;33751;50.816;-1.214;2022-07-21T00:41:33;5;5;
47982;PMS5003;33751;50.816;-1.214;2022-07-21T00:44:00;7;5;
47982;PMS5003;33751;50.816;-1.214;2022-07-21T00:46:27;5;5;
47982;PMS5003;33751;50.816;-1.214;2022-07-21T00:48:54;4;4;
47982;PMS5003;33751;50.816;-1.214;2022-07-21T00:51:22;4;4;
47982;PMS5003;33751;50.816;-1.214;2022-07-21T00:53:49;3;3;
47982;PMS5003;33751;50.816;-1.214;2022-07-21T00:56:16;2;2;
47982;PMS5003;33751;50.816;-1.214;2022-07-21T00:58:46;2;2;
47982;PMS5003;33751;50.816;-1.214;2022-07-21T01:01:14;2;2;
47982;PMS5003;33751;50.816;-1.214;2022-07-21T01:03:41;1;1;
47982;PMS5003;33751;50.816;-1.214;2022-07-21T01:06:08;3;1;
47982;PMS5003;33751;50.816;-1.214;2022-07-21T01:08:36;0;0;
47982;PMS5003;33751;50.816;-1.214;2022-07-21T01:11:03;0;0;
47982;PMS5003;33751;50.816;-1.214;2022-07-21T01:13:30;1;1;
47982;PMS5003;33751;50.816;-1.214;2022-07-21T01:15:57;0;0;
47982;PMS5003;33751;50.816;-1.214;2022-07-21T01:18:25;2;1;
47982;PMS5003;33751;50.816;-1.214;2022-07-21T01:20:53;0;0;
47982;PMS5003;33751;50.816;-1.214;2022-07-21T01:23:21;0;0;
47982;PMS5003;33751;50.816;-1.214;2022-07-21T01:25:48;1;1;
47982;PMS5003;33751;50.816;-1.214;2022-07-21T01:28:15;1;1;
47982;PMS5003;33751;50.816;-1.214;2022-07-21T01:30:43;2;2;
47982;PMS5003;33751;50.816;-1.214;2022-07-21T01:33:10;1;1;
47982;PMS5003;33751;50.816;-1.214;2022-07-21T01:35:36;0;0;
47982;PMS5003;33751;50.816;-1.214;2022-07-21T01:38:04;1;1;
47982;PMS5003;33751;50.816;-1.214;2022-07-21T01:40:31;0;0;
47982;PMS5003;33751;50.816;-1.214;2022-07-21T01:42:59;1;1;
47982;PMS5003;33751;50.816;-1.214;2022-07-21T01:45:27;2;2;
47982;PMS5003;33751;50.816;-1.214;2022-07-21T01:47:55;0;0;
47982;PMS5003;33751;50.816;-1.214;2022-07-21T01:50:22;0;0;
47982;PMS5003;33751;50.816;-1.214;2022-07-21T01:52:50;1;1;
47982;PMS5003;33751;50.816;-1.214;2022-07-21T01:55:16;2;2;
47982;PMS5003;33751;50.816;-1.214;2022-07-21T01:57:43;1;1;
47982;PMS5003;33751;50.816;-1.214;2022-07-21T02:00:11;1;1;
47982;PMS5003;33751;50.816;-1.214;2022-07-21T02:02:38;0;0;
47982;PMS5003;33751;50.816;-1.214;2022-07-21T02:05:05;1;1;
47982;PMS5003;33751;50.816;-1.214;2022-07-21T02:07:33;1;1;
47982;PMS5003;33751;50.816;-1.214;2022-07-21T02:09:59;2;2;
47982;PMS5003;33751;50.816;-1.214;2022-07-21T02:12:26;1;1;
47982;PMS5003;33751;50.816;-1.214;2022-07-21T02:14:53;2;2;
47982;PMS5003;33751;50.816;-1.214;2022-07-21T02:17:19;0;0;
47982;PMS5003;33751;50.816;-1.214;2022-07-21T02:19:46;1;1;
47982;PMS5003;33751;50.816;-1.214;2022-07-21T02:22:13;1;1;
47982;PMS5003;33751;50.816;-1.214;2022-07-21T02:24:41;0;0;
47982;PMS5003;33751;50.816;-1.214;2022-07-21T02:27:07;1;1;
47982;PMS5003;33751;50.816;-1.214;2022-07-21T02:29:34;0;0;
47982;PMS5003;33751;50.816;-1.214;2022-07-21T02:32:02;1;1;
47982;PMS5003;33751;50.816;-1.214;2022-07-21T02:34:29;2;2;
47982;PMS5003;33751;50.816;-1.214;2022-07-21T02:36:56;1;1;
47982;PMS5003;33751;50.816;-1.214;2022-07-21T02:39:23;0;0;
47982;PMS5003;33751;50.816;-1.214;2022-07-21T02:41:50;1;1;
47982;PMS5003;33751;50.816;-1.214;2022-07-21T02:44:17;0;0;
47982;PMS5003;33751;50.816;-1.214;2022-07-21T02:46:43;2;0;
47982;PMS5003;33751;50.816;-1.214;2022-07-21T02:49:10;1;1;
47982;PMS5003;33751;50.816;-1.214;2022-07-21T02:51:37;3;1;
47982;PMS5003;33751;50.816;-1.214;2022-07-21T02:54:04;12;2;
47982;PMS5003;33751;50.816;-1.214;2022-07-21T02:56:31;4;2;
47982;PMS5003;33751;50.816;-1.214;2022-07-21T02:58:59;0;0;
47982;PMS5003;33751;50.816;-1.214;2022-07-21T03:01:26;1;1;
47982;PMS5003;33751;50.816;-1.214;2022-07-21T03:03:53;0;0;
47982;PMS5003;33751;50.816;-1.214;2022-07-21T03:06:21;1;1;
47982;PMS5003;33751;50.816;-1.214;2022-07-21T03:08:48;0;0;
47982;PMS5003;33751;50.816;-1.214;2022-07-21T03:11:16;1;1;
47982;PMS5003;33751;50.816;-1.214;2022-07-21T03:13:43;0;0;
47982;PMS5003;33751;50.816;-1.214;2022-07-21T03:16:10;2;2;
47982;PMS5003;33751;50.816;-1.214;2022-07-21T03:18:38;1;1;
47982;PMS5003;33751;50.816;-1.214;2022-07-21T03:21:05;1;1;
47982;PMS5003;33751;50.816;-1.214;2022-07-21T03:23:33;0;0;
47982;PMS5003;33751;50.816;-1.214;2022-07-21T03:26:00;1;1;
47982;PMS5003;33751;50.816;-1.214;2022-07-21T03:28:27;5;1;
47982;PMS5003;33751;50.816;-1.214;2022-07-21T03:30:54;2;2;
47982;PMS5003;33751;50.816;-1.214;2022-07-21T03:33:21;0;0;
47982;PMS5003;33751;50.816;-1.214;2022-07-21T03:35:47;1;1;
47982;PMS5003;33751;50.816;-1.214;2022-07-21T03:38:15;1;1;
47982;PMS5003;33751;50.816;-1.214;2022-07-21T03:40:42;1;1;
47982;PMS5003;33751;50.816;-1.214;2022-07-21T03:43:09;0;0;
47982;PMS5003;33751;50.816;-1.214;2022-07-21T03:45:36;3;1;
47982;PMS5003;33751;50.816;-1.214;2022-07-21T03:48:04;2;2;
47982;PMS5003;33751;50.816;-1.214;2022-07-21T03:50:32;1;1;
47982;PMS5003;33751;50.816;-1.214;2022-07-21T03:53:00;1;1;
47982;PMS5003;33751;50.816;-1.214;2022-07-21T03:55:28;2;2;
47982;PMS5003;33751;50.816;-1.214;2022-07-21T03:57:57;2;1;
47982;PMS5003;33751;50.816;-1.214;2022-07-21T04:00:26;0;0;
47982;PMS5003;33751;50.816;-1.214;2022-07-21T04:02:56;1;1;
47982;PMS5003;33751;50.816;-1.214;2022-07-21T04:05:24;1;1;
47982;PMS5003;33751;50.816;-1.214;2022-07-21T04:07:52;1;1;
47982;PMS5003;33751;50.816;-1.214;2022-07-21T04:10:21;1;1;
47982;PMS5003;33751;50.816;-1.214;2022-07-21T04:12:50;0;0;
47982;PMS5003;33751;50.816;-1.214;2022-07-21T04:15:17;0;0;
47982;PMS5003;33751;50.816;-1.214;2022-07-21T04:17:44;1;1;
47982;PMS5003;33751;50.816;-1.214;2022-07-21T04:20:12;2;2;
47982;PMS5003;33751;50.816;-1.214;2022-07-21T04:22:41;0;0;
47982;PMS5003;33751;50.816;-1.214;2022-07-21T04:25:09;2;1;
47982;PMS5003;33751;50.816;-1.214;2022-07-21T04:27:36;1;1;
47982;PMS5003;33751;50.816;-1.214;2022-07-21T04:30:04;1;1;
47982;PMS5003;33751;50.816;-1.214;2022-07-21T04:32:34;0;0;
47982;PMS5003;33751;50.816;-1.214;2022-07-21T04:35:02;0;0;
47982;PMS5003;33751;50.816;-1.214;2022-07-21T04:37:30;0;0;
47982;PMS5003;33751;50.816;-1.214;2022-07-21T04:39:57;0;0;
47982;PMS5003;33751;50.816;-1.214;2022-07-21T04:42:24;1;1;
47982;PMS5003;33751;50.816;-1.214;2022-07-21T04:44:52;2;2;
47982;PMS5003;33751;50.816;-1.214;2022-07-21T04:47:19;0;0;
47982;PMS5003;33751;50.816;-1.214;2022-07-21T04:49:46;2;0;
47982;PMS5003;33751;50.816;-1.214;2022-07-21T04:52:13;2;1;
47982;PMS5003;33751;50.816;-1.214;2022-07-21T04:54:41;0;0;
47982;PMS5003;33751;50.816;-1.214;2022-07-21T04:57:08;1;1;
47982;PMS5003;33751;50.816;-1.214;2022-07-21T04:59:35;2;2;
47982;PMS5003;33751;50.816;-1.214;2022-07-21T05:02:03;1;0;
47982;PMS5003;33751;50.816;-1.214;2022-07-21T05:04:31;1;1;
47982;PMS5003;33751;50.816;-1.214;2022-07-21T05:06:58;1;1;
47982;PMS5003;33751;50.816;-1.214;2022-07-21T05:09:25;1;1;
47982;PMS5003;33751;50.816;-1.214;2022-07-21T05:11:53;2;2;
47982;PMS5003;33751;50.816;-1.214;2022-07-21T05:14:20;2;2;
47982;PMS5003;33751;50.816;-1.214;2022-07-21T05:16:46;2;2;
47982;PMS5003;33751;50.816;-1.214;2022-07-21T05:19:13;1;1;
47982;PMS5003;33751;50.816;-1.214;2022-07-21T05:21:40;4;1;
47982;PMS5003;33751;50.816;-1.214;2022-07-21T05:24:07;1;1;
47982;PMS5003;33751;50.816;-1.214;2022-07-21T05:26:34;2;2;
47982;PMS5003;33751;50.816;-1.214;2022-07-21T05:29:00;3;3;
47982;PMS5003;33751;50.816;-1.214;2022-07-21T05:31:28;2;2;
47982;PMS5003;33751;50.816;-1.214;2022-07-21T05:33:55;1;1;
47982;PMS5003;33751;50.816;-1.214;2022-07-21T05:36:22;0;0;
47982;PMS5003;33751;50.816;-1.214;2022-07-21T05:38:48;1;1;
47982;PMS5003;33751;50.816;-1.214;2022-07-21T05:41:15;1;1;
47982;PMS5003;33751;50.816;-1.214;2022-07-21T05:43:42;2;0;
47982;PMS5003;33751;50.816;-1.214;2022-07-21T05:46:08;1;1;
47982;PMS5003;33751;50.816;-1.214;2022-07-21T05:48:35;1;1;
47982;PMS5003;33751;50.816;-1.214;2022-07-21T05:51:01;2;2;
47982;PMS5003;33751;50.816;-1.214;2022-07-21T05:53:29;2;1;
47982;PMS5003;33751;50.816;-1.214;2022-07-21T05:55:56;1;1;
47982;PMS5003;33751;50.816;-1.214;2022-07-21T05:58:23;2;2;
47982;PMS5003;33751;50.816;-1.214;2022-07-21T06:00:51;2;2;
47982;PMS5003;33751;50.816;-1.214;2022-07-21T06:03:18;1;0;
47982;PMS5003;33751;50.816;-1.214;2022-07-21T06:05:46;1;0;
47982;PMS5003;33751;50.816;-1.214;2022-07-21T06:08:13;1;1;
47982;PMS5003;33751;50.816;-1.214;2022-07-21T06:10:39;2;2;
47982;PMS5003;33751;50.816;-1.214;2022-07-21T06:13:06;3;3;
47982;PMS5003;33751;50.816;-1.214;2022-07-21T06:15:34;4;3;
47982;PMS5003;33751;50.816;-1.214;2022-07-21T06:18:00;1;1;
47982;PMS5003;33751;50.816;-1.214;2022-07-21T06:20:27;3;2;
47982;PMS5003;33751;50.816;-1.214;2022-07-21T06:22:54;1;1;
47982;PMS5003;33751;50.816;-1.214;2022-07-21T06:25:20;1;1;
47982;PMS5003;33751;50.816;-1.214;2022-07-21T06:27:48;2;2;
47982;PMS5003;33751;50.816;-1.214;2022-07-21T06:30:15;2;2;
47982;PMS5003;33751;50.816;-1.214;2022-07-21T06:32:41;1;1;
47982;PMS5003;33751;50.816;-1.214;2022-07-21T06:35:08;4;4;
47982;PMS5003;33751;50.816;-1.214;2022-07-21T06:37:35;3;1;
47982;PMS5003;33751;50.816;-1.214;2022-07-21T06:40:03;3;1;
47982;PMS5003;33751;50.816;-1.214;2022-07-21T06:42:31;1;1;
47982;PMS5003;33751;50.816;-1.214;2022-07-21T06:44:58;2;2;
47982;PMS5003;33751;50.816;-1.214;2022-07-21T06:47:25;2;2;
47982;PMS5003;33751;50.816;-1.214;2022-07-21T06:49:53;3;2;
47982;PMS5003;33751;50.816;-1.214;2022-07-21T06:52:19;0;0;
47982;PMS5003;33751;50.816;-1.214;2022-07-21T06:54:46;2;2;
47982;PMS5003;33751;50.816;-1.214;2022-07-21T06:57:12;12;4;
47982;PMS5003;33751;50.816;-1.214;2022-07-21T06:59:39;4;3;
47982;PMS5003;33751;50.816;-1.214;2022-07-21T07:02:07;2;2;
47982;PMS5003;33751;50.816;-1.214;2022-07-21T07:04:34;3;2;
47982;PMS5003;33751;50.816;-1.214;2022-07-21T07:07:00;2;2;
47982;PMS5003;33751;50.816;-1.214;2022-07-21T07:09:27;1;1;
47982;PMS5003;33751;50.816;-1.214;2022-07-21T07:11:54;14;3;
47982;PMS5003;33751;50.816;-1.214;2022-07-21T07:14:21;4;2;
47982;PMS5003;33751;50.816;-1.214;2022-07-21T07:16:48;4;4;
47982;PMS5003;33751;50.816;-1.214;2022-07-21T07:19:15;5;3;
47982;PMS5003;33751;50.816;-1.214;2022-07-21T07:21:42;1;1;
47982;PMS5003;33751;50.816;-1.214;2022-07-21T07:24:08;2;2;
47982;PMS5003;33751;50.816;-1.214;2022-07-21T07:26:35;6;4;
47982;PMS5003;33751;50.816;-1.214;2022-07-21T07:29:01;2;2;
47982;PMS5003;33751;50.816;-1.214;2022-07-21T07:31:29;2;2;
47982;PMS5003;33751;50.816;-1.214;2022-07-21T07:33:56;3;3;
47982;PMS5003;33751;50.816;-1.214;2022-07-21T07:36:23;1;1;
47982;PMS5003;33751;50.816;-1.214;2022-07-21T07:38:50;2;2;
47982;PMS5003;33751;50.816;-1.214;2022-07-21T07:41:18;2;2;
47982;PMS5003;33751;50.816;-1.214;2022-07-21T07:43:46;2;2;
47982;PMS5003;33751;50.816;-1.214;2022-07-21T07:46:13;2;2;
47982;PMS5003;33751;50.816;-1.214;2022-07-21T07:48:41;3;3;
47982;PMS5003;33751;50.816;-1.214;2022-07-21T07:51:08;3;3;
47982;PMS5003;33751;50.816;-1.214;2022-07-21T07:53:35;3;3;
47982;PMS5003;33751;50.816;-1.214;2022-07-21T07:56:03;1;1;
47982;PMS5003;33751;50.816;-1.214;2022-07-21T07:58:30;2;2;
47982;PMS5003;33751;50.816;-1.214;2022-07-21T08:00:57;2;2;
47982;PMS5003;33751;50.816;-1.214;2022-07-21T08:03:25;1;1;
47982;PMS5003;33751;50.816;-1.214;2022-07-21T08:05:53;4;4;
47982;PMS5003;33751;50.816;-1.214;2022-07-21T08:08:22;1;1;
47982;PMS5003;33751;50.816;-1.214;2022-07-21T08:10:49;1;1;
47982;PMS5003;33751;50.816;-1.214;2022-07-21T08:13:17;1;1;
47982;PMS5003;33751;50.816;-1.214;2022-07-21T08:15:46;1;1;
47982;PMS5003;33751;50.816;-1.214;2022-07-21T08:18:14;3;3;
47982;PMS5003;33751;50.816;-1.214;2022-07-21T08:20:42;4;4;
47982;PMS5003;33751;50.816;-1.214;2022-07-21T08:23:10;1;1;
47982;PMS5003;33751;50.816;-1.214;2022-07-21T08:25:39;5;2;
47982;PMS5003;33751;50.816;-1.214;2022-07-21T08:28:07;3;3;
47982;PMS5003;33751;50.816;-1.214;2022-07-21T08:30:34;4;3;
47982;PMS5003;33751;50.816;-1.214;2022-07-21T08:33:02;4;4;
47982;PMS5003;33751;50.816;-1.214;2022-07-21T08:35:30;4;4;
47982;PMS5003;33751;50.816;-1.214;2022-07-21T08:37:57;8;8;
47982;PMS5003;33751;50.816;-1.214;2022-07-21T08:40:27;14;11;
47982;PMS5003;33751;50.816;-1.214;2022-07-21T08:42:56;17;15;
47982;PMS5003;33751;50.816;-1.214;2022-07-21T08:45:23;16;13;
47982;PMS5003;33751;50.816;-1.214;2022-07-21T08:47:51;4;3;
47982;PMS5003;33751;50.816;-1.214;2022-07-21T08:50:21;3;3;
47982;PMS5003;33751;50.816;-1.214;2022-07-21T08:52:49;5;2;
47982;PMS5003;33751;50.816;-1.214;2022-07-21T08:55:16;2;2;
47982;PMS5003;33751;50.816;-1.214;2022-07-21T08:57:43;9;3;
47982;PMS5003;33751;50.816;-1.214;2022-07-21T09:00:11;3;2;
47982;PMS5003;33751;50.816;-1.214;2022-07-21T09:02:38;3;3;
47982;PMS5003;33751;50.816;-1.214;2022-07-21T09:05:08;4;4;
47982;PMS5003;33751;50.816;-1.214;2022-07-21T09:07:46;2;2;
47982;PMS5003;33751;50.816;-1.214;2022-07-21T09:10:14;4;2;
47982;PMS5003;33751;50.816;-1.214;2022-07-21T09:12:48;1;1;
47982;PMS5003;33751;50.816;-1.214;2022-07-21T09:15:17;3;3;
47982;PMS5003;33751;50.816;-1.214;2022-07-21T09:17:47;3;3;
47982;PMS5003;33751;50.816;-1.214;2022-07-21T09:20:30;3;3;
47982;PMS5003;33751;50.816;-1.214;2022-07-21T09:23:03;4;4;
47982;PMS5003;33751;50.816;-1.214;2022-07-21T09:25:34;3;1;
47982;PMS5003;33751;50.816;-1.214;2022-07-21T09:28:11;2;2;
47982;PMS5003;33751;50.816;-1.214;2022-07-21T09:30:48;4;4;
47982;PMS5003;33751;50.816;-1.214;2022-07-21T09:33:19;5;4;
47982;PMS5003;33751;50.816;-1.214;2022-07-21T09:35:55;3;3;
47982;PMS5003;33751;50.816;-1.214;2022-07-21T09:38:24;2;2;
47982;PMS5003;33751;50.816;-1.214;2022-07-21T09:40:52;3;3;
47982;PMS5003;33751;50.816;-1.214;2022-07-21T09:43:36;4;3;
47982;PMS5003;33751;50.816;-1.214;2022-07-21T09:46:05;5;4;
47982;PMS5003;33751;50.816;-1.214;2022-07-21T09:48:32;4;4;
47982;PMS5003;33751;50.816;-1.214;2022-07-21T09:51:38;3;3;
47982;PMS5003;33751;50.816;-1.214;2022-07-21T09:54:05;3;3;
47982;PMS5003;33751;50.816;-1.214;2022-07-21T09:56:35;3;3;
47982;PMS5003;33751;50.816;-1.214;2022-07-21T09:59:04;2;2;
47982;PMS5003;33751;50.816;-1.214;2022-07-21T10:01:31;1;1;
47982;PMS5003;33751;50.816;-1.214;2022-07-21T10:03:59;11;6;
47982;PMS5003;33751;50.816;-1.214;2022-07-21T10:06:27;3;3;
47982;PMS5003;33751;50.816;-1.214;2022-07-21T10:08:57;3;3;
47982;PMS5003;33751;50.816;-1.214;2022-07-21T10:11:26;5;2;
47982;PMS5003;33751;50.816;-1.214;2022-07-21T10:13:54;3;3;
47982;PMS5003;33751;50.816;-1.214;2022-07-21T10:16:22;3;3;
47982;PMS5003;33751;50.816;-1.214;2022-07-21T10:18:53;5;5;
47982;PMS5003;33751;50.816;-1.214;2022-07-21T10:21:28;6;6;
47982;PMS5003;33751;50.816;-1.214;2022-07-21T10:24:02;4;4;
47982;PMS5003;33751;50.816;-1.214;2022-07-21T10:26:30;7;6;
47982;PMS5003;33751;50.816;-1.214;2022-07-21T10:28:57;6;6;
47982;PMS5003;33751;50.816;-1.214;2022-07-21T10:31:25;5;5;
47982;PMS5003;33751;50.816;-1.214;2022-07-21T10:33:54;6;5;
47982;PMS5003;33751;50.816;-1.214;2022-07-21T10:36:41;4;4;
47982;PMS5003;33751;50.816;-1.214;2022-07-21T10:39:13;5;5;
47982;PMS5003;33751;50.816;-1.214;2022-07-21T10:41:46;7;6;
47982;PMS5003;33751;50.816;-1.214;2022-07-21T10:44:46;5;5;
47982;PMS5003;33751;50.816;-1.214;2022-07-21T10:47:13;6;5;
47982;PMS5003;33751;50.816;-1.214;2022-07-21T10:49:44;6;6;
47982;PMS5003;33751;50.816;-1.214;2022-07-21T10:53:03;5;3;
47982;PMS5003;33751;50.816;-1.214;2022-07-21T10:55:38;4;3;
47982;PMS5003;33751;50.816;-1.214;2022-07-21T10:58:13;6;5;
47982;PMS5003;33751;50.816;-1.214;2022-07-21T11:00:46;4;4;
47982;PMS5003;33751;50.816;-1.214;2022-07-21T11:03:18;4;4;
47982;PMS5003;33751;50.816;-1.214;2022-07-21T11:06:33;5;5;
47982;PMS5003;33751;50.816;-1.214;2022-07-21T11:09:05;3;3;
47982;PMS5003;33751;50.816;-1.214;2022-07-21T11:11:37;7;5;
47982;PMS5003;33751;50.816;-1.214;2022-07-21T11:14:07;5;5;
47982;PMS5003;33751;50.816;-1.214;2022-07-21T11:17:11;2;2;
47982;PMS5003;33751;50.816;-1.214;2022-07-21T11:19:51;5;4;
47982;PMS5003;33751;50.816;-1.214;2022-07-21T11:22:19;7;5;
47982;PMS5003;33751;50.816;-1.214;2022-07-21T11:24:47;5;5;
47982;PMS5003;33751;50.816;-1.214;2022-07-21T11:27:16;5;5;
47982;PMS5003;33751;50.816;-1.214;2022-07-21T11:29:46;4;4;
47982;PMS5003;33751;50.816;-1.214;2022-07-21T11:32:15;4;4;
47982;PMS5003;33751;50.816;-1.214;2022-07-21T11:34:45;1;1;
47982;PMS5003;33751;50.816;-1.214;2022-07-21T11:37:14;4;4;
47982;PMS5003;33751;50.816;-1.214;2022-07-21T11:39:42;7;6;
47982;PMS5003;33751;50.816;-1.214;2022-07-21T11:42:10;108;99;
47982;PMS5003;33751;50.816;-1.214;2022-07-21T11:44:39;107;96;
47982;PMS5003;33751;50.816;-1.214;2022-07-21T11:47:09;79;68;
47982;PMS5003;33751;50.816;-1.214;2022-07-21T11:49:38;104;92;
47982;PMS5003;33751;50.816;-1.214;2022-07-21T11:52:06;94;89;
47982;PMS5003;33751;50.816;-1.214;2022-07-21T11:54:36;112;97;
47982;PMS5003;33751;50.816;-1.214;2022-07-21T11:57:05;113;103;
47982;PMS5003;33751;50.816;-1.214;2022-07-21T11:59:34;91;80;
47982;PMS5003;33751;50.816;-1.214;2022-07-21T12:02:04;112;99;
47982;PMS5003;33751;50.816;-1.214;2022-07-21T12:04:33;97;97;
47982;PMS5003;33751;50.816;-1.214;2022-07-21T12:07:03;76;72;
47982;PMS5003;33751;50.816;-1.214;2022-07-21T12:09:32;62;53;
47982;PMS5003;33751;50.816;-1.214;2022-07-21T12:11:59;79;79;
47982;PMS5003;33751;50.816;-1.214;2022-07-21T12:14:40;80;73;
47982;PMS5003;33751;50.816;-1.214;2022-07-21T12:17:09;111;98;
47982;PMS5003;33751;50.816;-1.214;2022-07-21T12:19:37;74;62;
47982;PMS5003;33751;50.816;-1.214;2022-07-21T12:22:04;90;81;
47982;PMS5003;33751;50.816;-1.214;2022-07-21T12:24:54;98;90;
47982;PMS5003;33751;50.816;-1.214;2022-07-21T12:27:22;72;60;
47982;PMS5003;33751;50.816;-1.214;2022-07-21T12:29:50;53;46;
47982;PMS5003;33751;50.816;-1.214;2022-07-21T12:32:50;68;54;
47982;PMS5003;33751;50.816;-1.214;2022-07-21T12:35:19;80;71;
47982;PMS5003;33751;50.816;-1.214;2022-07-21T12:37:52;61;57;
47982;PMS5003;33751;50.816;-1.214;2022-07-21T12:40:19;34;31;
47982;PMS5003;33751;50.816;-1.214;2022-07-21T12:42:47;36;27;
47982;PMS5003;33751;50.816;-1.214;2022-07-21T12:45:16;88;73;
47982;PMS5003;33751;50.816;-1.214;2022-07-21T12:48:04;74;62;
47982;PMS5003;33751;50.816;-1.214;2022-07-21T12:50:33;87;75;
47982;PMS5003;33751;50.816;-1.214;2022-07-21T12:53:00;76;66;
47982;PMS5003;33751;50.816;-1.214;2022-07-21T12:55:27;89;82;
47982;PMS5003;33751;50.816;-1.214;2022-07-21T12:57:54;88;80;
47982;PMS5003;33751;50.816;-1.214;2022-07-21T13:00:21;52;49;
47982;PMS5003;33751;50.816;-1.214;2022-07-21T13:02:49;53;45;
47982;PMS5003;33751;50.816;-1.214;2022-07-21T13:05:22;55;44;
47982;PMS5003;33751;50.816;-1.214;2022-07-21T13:07:49;57;46;
47982;PMS5003;33751;50.816;-1.214;2022-07-21T13:10:18;59;46;
47982;PMS5003;33751;50.816;-1.214;2022-07-21T13:12:45;76;64;
47982;PMS5003;33751;50.816;-1.214;2022-07-21T13:15:12;70;57;
47982;PMS5003;33751;50.816;-1.214;2022-07-21T13:17:39;86;76;
47982;PMS5003;33751;50.816;-1.214;2022-07-21T13:20:07;73;64;
47982;PMS5003;33751;50.816;-1.214;2022-07-21T13:22:34;69;58;
47982;PMS5003;33751;50.816;-1.214;2022-07-21T13:25:01;76;67;
47982;PMS5003;33751;50.816;-1.214;2022-07-21T13:27:29;83;72;
47982;PMS5003;33751;50.816;-1.214;2022-07-21T13:29:56;84;72;
47982;PMS5003;33751;50.816;-1.214;2022-07-21T13:32:23;81;69;
47982;PMS5003;33751;50.816;-1.214;2022-07-21T13:34:50;90;81;
47982;PMS5003;33751;50.816;-1.214;2022-07-21T13:37:17;94;83;
47982;PMS5003;33751;50.816;-1.214;2022-07-21T13:39:44;76;66;
47982;PMS5003;33751;50.816;-1.214;2022-07-21T13:42:11;70;57;
47982;PMS5003;33751;50.816;-1.214;2022-07-21T13:44:38;87;78;
47982;PMS5003;33751;50.816;-1.214;2022-07-21T13:47:05;92;82;
47982;PMS5003;33751;50.816;-1.214;2022-07-21T13:49:32;75;64;
47982;PMS5003;33751;50.816;-1.214;2022-07-21T13:51:59;66;57;
47982;PMS5003;33751;50.816;-1.214;2022-07-21T13:54:26;65;53;
47982;PMS5003;33751;50.816;-1.214;2022-07-21T13:56:53;79;79;
47982;PMS5003;33751;50.816;-1.214;2022-07-21T13:59:21;55;43;
47982;PMS5003;33751;50.816;-1.214;2022-07-21T14:01:47;103;92;
47982;PMS5003;33751;50.816;-1.214;2022-07-21T14:04:14;67;57;
47982;PMS5003;33751;50.816;-1.214;2022-07-21T14:06:42;101;88;
47982;PMS5003;33751;50.816;-1.214;2022-07-21T14:09:09;88;77;
47982;PMS5003;33751;50.816;-1.214;2022-07-21T14:11:35;92;83;
47982;PMS5003;33751;50.816;-1.214;2022-07-21T14:14:02;69;58;
47982;PMS5003;33751;50.816;-1.214;2022-07-21T14:16:29;83;70;
47982;PMS5003;33751;50.816;-1.214;2022-07-21T14:18:56;66;55;
47982;PMS5003;33751;50.816;-1.214;2022-07-21T14:21:24;67;66;
47982;PMS5003;33751;50.816;-1.214;2022-07-21T14:23:52;82;80;
47982;PMS5003;33751;50.816;-1.214;2022-07-21T14:26:19;89;76;
47982;PMS5003;33751;50.816;-1.214;2022-07-21T14:28:46;86;75;
47982;PMS5003;33751;50.816;-1.214;2022-07-21T14:31:13;84;75;
47982;PMS5003;33751;50.816;-1.214;2022-07-21T14:33:40;71;71;
47982;PMS5003;33751;50.816;-1.214;2022-07-21T14:36:07;83;72;
47982;PMS5003;33751;50.816;-1.214;2022-07-21T14:38:35;66;66;
47982;PMS5003;33751;50.816;-1.214;2022-07-21T14:41:02;70;59;
47982;PMS5003;33751;50.816;-1.214;2022-07-21T14:43:29;88;77;
47982;PMS5003;33751;50.816;-1.214;2022-07-21T14:45:56;88;77;
47982;PMS5003;33751;50.816;-1.214;2022-07-21T14:48:23;80;69;
47982;PMS5003;33751;50.816;-1.214;2022-07-21T14:50:51;106;92;
47982;PMS5003;33751;50.816;-1.214;2022-07-21T14:53:18;89;76;
47982;PMS5003;33751;50.816;-1.214;2022-07-21T14:55:46;52;43;
47982;PMS5003;33751;50.816;-1.214;2022-07-21T14:58:13;78;68;
47982;PMS5003;33751;50.816;-1.214;2022-07-21T15:00:40;76;65;
47982;PMS5003;33751;50.816;-1.214;2022-07-21T15:03:06;57;47;
47982;PMS5003;33751;50.816;-1.214;2022-07-21T15:05:33;67;61;
47982;PMS5003;33751;50.816;-1.214;2022-07-21T15:08:00;63;52;
47982;PMS5003;33751;50.816;-1.214;2022-07-21T15:10:27;80;68;
47982;PMS5003;33751;50.816;-1.214;2022-07-21T15:12:54;83;72;
47982;PMS5003;33751;50.816;-1.214;2022-07-21T15:15:21;80;71;
47982;PMS5003;33751;50.816;-1.214;2022-07-21T15:17:48;59;48;
47982;PMS5003;33751;50.816;-1.214;2022-07-21T15:20:15;61;51;
47982;PMS5003;33751;50.816;-1.214;2022-07-21T15:22:42;64;58;
47982;PMS5003;33751;50.816;-1.214;2022-07-21T15:25:10;54;44;
47982;PMS5003;33751;50.816;-1.214;2022-07-21T15:27:38;55;44;
47982;PMS5003;33751;50.816;-1.214;2022-07-21T15:30:06;67;59;
47982;PMS5003;33751;50.816;-1.214;2022-07-21T15:32:36;72;59;
47982;PMS5003;33751;50.816;-1.214;2022-07-21T15:35:02;76;73;
47982;PMS5003;33751;50.816;-1.214;2022-07-21T15:37:29;57;50;
47982;PMS5003;33751;50.816;-1.214;2022-07-21T15:39:56;80;69;
47982;PMS5003;33751;50.816;-1.214;2022-07-21T15:42:24;77;66;
47982;PMS5003;33751;50.816;-1.214;2022-07-21T15:44:51;72;59;
47982;PMS5003;33751;50.816;-1.214;2022-07-21T15:47:18;48;38;
47982;PMS5003;33751;50.816;-1.214;2022-07-21T15:49:46;79;66;
47982;PMS5003;33751;50.816;-1.214;2022-07-21T15:52:13;84;74;
47982;PMS5003;33751;50.816;-1.214;2022-07-21T15:54:40;92;79;
47982;PMS5003;33751;50.816;-1.214;2022-07-21T15:57:07;68;65;
47982;PMS5003;33751;50.816;-1.214;2022-07-21T15:59:33;87;77;
47982;PMS5003;33751;50.816;-1.214;2022-07-21T16:02:01;76;64;
47982;PMS5003;33751;50.816;-1.214;2022-07-21T16:04:28;66;55;
47982;PMS5003;33751;50.816;-1.214;2022-07-21T16:06:55;72;63;
47982;PMS5003;33751;50.816;-1.214;2022-07-21T16:09:22;57;47;
47982;PMS5003;33751;50.816;-1.214;2022-07-21T16:11:49;77;67;
47982;PMS5003;33751;50.816;-1.214;2022-07-21T16:14:16;50;39;
47982;PMS5003;33751;50.816;-1.214;2022-07-21T16:16:43;63;53;
47982;PMS5003;33751;50.816;-1.214;2022-07-21T16:19:11;67;54;
47982;PMS5003;33751;50.816;-1.214;2022-07-21T16:21:37;77;65;
47982;PMS5003;33751;50.816;-1.214;2022-07-21T16:24:05;49;38;
47982;PMS5003;33751;50.816;-1.214;2022-07-21T16:26:32;58;48;
47982;PMS5003;33751;50.816;-1.214;2022-07-21T16:28:59;37;34;
47982;PMS5003;33751;50.816;-1.214;2022-07-21T16:31:26;75;64;
47982;PMS5003;33751;50.816;-1.214;2022-07-21T16:33:53;66;55;